sensor_id;sensor_type;location;lat;lon;timestamp;P1;durP1;ratioP1;P2;durP2;ratioP2
41875;SDS011;27555;50.808;4.402;2022-10-28T00:00:21;13.10;;;4.65;;
41875;SDS011;27555;50.808;4.402;2022-10-28T00:02:47;25.08;;;3.80;;
41875;SDS011;27555;50.808;4.402;2022-10-28T00:05:13;14.82;;;3.70;;
41875;SDS011;27555;50.808;4.402;2022-10-28T00:07:39;17.00;;;3.65;;
41875;SDS011;27555;50.808;4.402;2022-10-28T00:10:05;14.32;;;3.15;;
41875;SDS011;27555;50.808;4.402;2022-10-28T00:12:34;21.38;;;3.83;;
41875;SDS011;27555;50.808;4.402;2022-10-28T00:15:02;15.70;;;3.90;;
41875;SDS011;27555;50.808;4.402;2022-10-28T00:17:29;25.42;;;4.22;;
41875;SDS011;27555;50.808;4.402;2022-10-28T00:19:54;14.43;;;3.58;;
41875;SDS011;27555;50.808;4.402;2022-10-28T00:22:20;12.68;;;2.65;;
41875;SDS011;27555;50.808;4.402;2022-10-28T00:24:46;12.50;;;2.90;;
41875;SDS011;27555;50.808;4.402;2022-10-28T00:27:11;11.30;;;2.75;;
41875;SDS011;27555;50.808;4.402;2022-10-28T00:29:37;19.17;;;3.90;;
41875;SDS011;27555;50.808;4.402;2022-10-28T00:32:03;14.15;;;3.13;;
41875;SDS011;27555;50.808;4.402;2022-10-28T00:34:31;14.77;;;2.58;;
41875;SDS011;27555;50.808;4.402;2022-10-28T00:36:56;15.57;;;3.50;;
41875;SDS011;27555;50.808;4.402;2022-10-28T00:39:26;20.73;;;3.55;;
41875;SDS011;27555;50.808;4.402;2022-10-28T00:41:54;17.05;;;2.97;;
41875;SDS011;27555;50.808;4.402;2022-10-28T00:47:39;12.90;;;3.25;;
41875;SDS011;27555;50.808;4.402;2022-10-28T00:50:14;12.75;;;3.47;;
41875;SDS011;27555;50.808;4.402;2022-10-28T00:52:56;15.30;;;5.28;;
41875;SDS011;27555;50.808;4.402;2022-10-28T00:55:28;14.10;;;3.80;;
41875;SDS011;27555;50.808;4.402;2022-10-28T00:57:55;20.92;;;3.88;;
41875;SDS011;27555;50.808;4.402;2022-10-28T01:00:23;12.18;;;2.67;;
41875;SDS011;27555;50.808;4.402;2022-10-28T01:02:50;13.57;;;3.53;;
41875;SDS011;27555;50.808;4.402;2022-10-28T01:05:36;14.52;;;3.65;;
41875;SDS011;27555;50.808;4.402;2022-10-28T01:08:05;7.63;;;2.78;;
41875;SDS011;27555;50.808;4.402;2022-10-28T01:27:24;20.33;;;4.03;;
41875;SDS011;27555;50.808;4.402;2022-10-28T01:33:00;15.02;;;2.83;;
41875;SDS011;27555;50.808;4.402;2022-10-28T01:35:33;11.20;;;2.92;;
41875;SDS011;27555;50.808;4.402;2022-10-28T01:43:36;12.32;;;2.88;;
41875;SDS011;27555;50.808;4.402;2022-10-28T01:49:18;9.60;;;2.78;;
41875;SDS011;27555;50.808;4.402;2022-10-28T01:52:13;16.95;;;3.22;;
41875;SDS011;27555;50.808;4.402;2022-10-28T01:54:44;16.77;;;3.33;;
41875;SDS011;27555;50.808;4.402;2022-10-28T01:57:14;15.75;;;3.58;;
41875;SDS011;27555;50.808;4.402;2022-10-28T01:59:42;20.70;;;3.20;;
41875;SDS011;27555;50.808;4.402;2022-10-28T02:02:13;21.38;;;3.03;;
41875;SDS011;27555;50.808;4.402;2022-10-28T02:04:39;10.10;;;2.50;;
41875;SDS011;27555;50.808;4.402;2022-10-28T02:07:05;16.23;;;3.47;;
41875;SDS011;27555;50.808;4.402;2022-10-28T02:09:50;14.38;;;3.22;;
41875;SDS011;27555;50.808;4.402;2022-10-28T02:12:36;16.67;;;3.38;;
41875;SDS011;27555;50.808;4.402;2022-10-28T02:15:06;15.95;;;3.38;;
41875;SDS011;27555;50.808;4.402;2022-10-28T02:17:52;14.75;;;2.95;;
41875;SDS011;27555;50.808;4.402;2022-10-28T02:26:14;10.43;;;2.85;;
41875;SDS011;27555;50.808;4.402;2022-10-28T02:33:53;10.05;;;2.95;;
41875;SDS011;27555;50.808;4.402;2022-10-28T02:36:24;17.35;;;4.03;;
41875;SDS011;27555;50.808;4.402;2022-10-28T02:38:54;13.75;;;3.35;;
41875;SDS011;27555;50.808;4.402;2022-10-28T02:41:23;18.17;;;3.08;;
41875;SDS011;27555;50.808;4.402;2022-10-28T02:43:59;14.95;;;2.60;;
41875;SDS011;27555;50.808;4.402;2022-10-28T02:46:31;17.20;;;3.55;;
41875;SDS011;27555;50.808;4.402;2022-10-28T02:49:05;12.48;;;3.30;;
41875;SDS011;27555;50.808;4.402;2022-10-28T02:51:40;12.57;;;3.25;;
41875;SDS011;27555;50.808;4.402;2022-10-28T02:54:15;16.40;;;3.60;;
41875;SDS011;27555;50.808;4.402;2022-10-28T02:56:50;11.30;;;3.00;;
41875;SDS011;27555;50.808;4.402;2022-10-28T02:59:27;17.33;;;3.92;;
41875;SDS011;27555;50.808;4.402;2022-10-28T03:04:20;12.50;;;3.47;;
41875;SDS011;27555;50.808;4.402;2022-10-28T03:06:45;13.50;;;3.17;;
41875;SDS011;27555;50.808;4.402;2022-10-28T03:09:11;20.45;;;3.75;;
41875;SDS011;27555;50.808;4.402;2022-10-28T03:11:38;18.08;;;3.35;;
41875;SDS011;27555;50.808;4.402;2022-10-28T03:14:03;12.38;;;3.25;;
41875;SDS011;27555;50.808;4.402;2022-10-28T03:16:29;16.42;;;3.15;;
41875;SDS011;27555;50.808;4.402;2022-10-28T03:18:55;7.80;;;3.38;;
41875;SDS011;27555;50.808;4.402;2022-10-28T03:21:22;16.33;;;3.47;;
41875;SDS011;27555;50.808;4.402;2022-10-28T03:23:48;15.90;;;3.60;;
41875;SDS011;27555;50.808;4.402;2022-10-28T03:26:13;12.25;;;3.03;;
41875;SDS011;27555;50.808;4.402;2022-10-28T03:28:39;12.00;;;3.15;;
41875;SDS011;27555;50.808;4.402;2022-10-28T03:31:06;15.70;;;3.25;;
41875;SDS011;27555;50.808;4.402;2022-10-28T03:33:33;21.27;;;3.20;;
41875;SDS011;27555;50.808;4.402;2022-10-28T03:36:00;20.88;;;3.63;;
41875;SDS011;27555;50.808;4.402;2022-10-28T03:38:25;13.60;;;3.22;;
41875;SDS011;27555;50.808;4.402;2022-10-28T03:40:51;15.60;;;2.70;;
41875;SDS011;27555;50.808;4.402;2022-10-28T03:43:17;12.90;;;3.20;;
41875;SDS011;27555;50.808;4.402;2022-10-28T03:45:43;12.88;;;3.25;;
41875;SDS011;27555;50.808;4.402;2022-10-28T03:48:09;13.55;;;3.17;;
41875;SDS011;27555;50.808;4.402;2022-10-28T03:50:34;17.33;;;3.42;;
41875;SDS011;27555;50.808;4.402;2022-10-28T03:53:00;13.07;;;3.65;;
41875;SDS011;27555;50.808;4.402;2022-10-28T03:55:27;19.88;;;2.90;;
41875;SDS011;27555;50.808;4.402;2022-10-28T03:57:54;13.65;;;3.33;;
41875;SDS011;27555;50.808;4.402;2022-10-28T04:00:21;16.10;;;4.53;;
41875;SDS011;27555;50.808;4.402;2022-10-28T04:02:50;14.73;;;2.80;;
41875;SDS011;27555;50.808;4.402;2022-10-28T04:05:17;14.70;;;3.17;;
41875;SDS011;27555;50.808;4.402;2022-10-28T04:07:44;16.20;;;3.42;;
41875;SDS011;27555;50.808;4.402;2022-10-28T04:10:12;18.40;;;2.92;;
41875;SDS011;27555;50.808;4.402;2022-10-28T04:12:40;17.58;;;3.53;;
41875;SDS011;27555;50.808;4.402;2022-10-28T04:15:06;12.02;;;3.40;;
41875;SDS011;27555;50.808;4.402;2022-10-28T04:17:32;15.27;;;3.05;;
41875;SDS011;27555;50.808;4.402;2022-10-28T04:19:59;16.05;;;3.63;;
41875;SDS011;27555;50.808;4.402;2022-10-28T04:22:25;13.10;;;3.65;;
41875;SDS011;27555;50.808;4.402;2022-10-28T04:24:50;14.63;;;3.22;;
41875;SDS011;27555;50.808;4.402;2022-10-28T04:27:18;13.35;;;3.35;;
41875;SDS011;27555;50.808;4.402;2022-10-28T04:29:45;19.33;;;6.05;;
41875;SDS011;27555;50.808;4.402;2022-10-28T04:32:11;14.27;;;3.20;;
41875;SDS011;27555;50.808;4.402;2022-10-28T04:34:37;14.25;;;3.70;;
41875;SDS011;27555;50.808;4.402;2022-10-28T04:37:03;15.65;;;3.25;;
41875;SDS011;27555;50.808;4.402;2022-10-28T04:39:30;14.77;;;3.30;;
41875;SDS011;27555;50.808;4.402;2022-10-28T04:41:55;11.23;;;3.30;;
41875;SDS011;27555;50.808;4.402;2022-10-28T04:44:22;16.23;;;4.20;;
41875;SDS011;27555;50.808;4.402;2022-10-28T04:46:47;14.55;;;3.35;;
41875;SDS011;27555;50.808;4.402;2022-10-28T04:49:13;9.48;;;3.05;;
41875;SDS011;27555;50.808;4.402;2022-10-28T04:51:38;15.90;;;3.13;;
41875;SDS011;27555;50.808;4.402;2022-10-28T04:54:04;13.40;;;3.83;;
41875;SDS011;27555;50.808;4.402;2022-10-28T04:56:31;15.52;;;3.75;;
41875;SDS011;27555;50.808;4.402;2022-10-28T04:58:59;12.32;;;3.00;;
41875;SDS011;27555;50.808;4.402;2022-10-28T05:01:25;19.35;;;3.42;;
41875;SDS011;27555;50.808;4.402;2022-10-28T05:03:51;14.70;;;4.05;;
41875;SDS011;27555;50.808;4.402;2022-10-28T05:06:22;19.10;;;3.92;;
41875;SDS011;27555;50.808;4.402;2022-10-28T05:08:48;14.57;;;3.55;;
41875;SDS011;27555;50.808;4.402;2022-10-28T05:11:15;13.00;;;3.30;;
41875;SDS011;27555;50.808;4.402;2022-10-28T05:13:43;16.77;;;3.42;;
41875;SDS011;27555;50.808;4.402;2022-10-28T05:16:08;10.63;;;2.88;;
41875;SDS011;27555;50.808;4.402;2022-10-28T05:18:34;15.65;;;4.30;;
41875;SDS011;27555;50.808;4.402;2022-10-28T05:21:00;12.60;;;2.92;;
41875;SDS011;27555;50.808;4.402;2022-10-28T05:23:26;13.57;;;3.15;;
41875;SDS011;27555;50.808;4.402;2022-10-28T05:25:53;18.25;;;3.25;;
41875;SDS011;27555;50.808;4.402;2022-10-28T05:28:19;16.70;;;3.67;;
41875;SDS011;27555;50.808;4.402;2022-10-28T05:30:45;22.73;;;3.53;;
41875;SDS011;27555;50.808;4.402;2022-10-28T05:33:11;13.07;;;3.72;;
41875;SDS011;27555;50.808;4.402;2022-10-28T05:35:37;17.63;;;3.47;;
41875;SDS011;27555;50.808;4.402;2022-10-28T05:38:03;10.70;;;3.17;;
41875;SDS011;27555;50.808;4.402;2022-10-28T05:40:29;12.82;;;3.38;;
41875;SDS011;27555;50.808;4.402;2022-10-28T05:42:56;15.20;;;3.67;;
41875;SDS011;27555;50.808;4.402;2022-10-28T05:45:22;22.10;;;3.72;;
41875;SDS011;27555;50.808;4.402;2022-10-28T05:47:48;15.40;;;3.63;;
41875;SDS011;27555;50.808;4.402;2022-10-28T05:50:14;12.50;;;3.28;;
41875;SDS011;27555;50.808;4.402;2022-10-28T05:52:51;14.57;;;3.50;;
41875;SDS011;27555;50.808;4.402;2022-10-28T05:55:19;18.55;;;2.83;;
41875;SDS011;27555;50.808;4.402;2022-10-28T05:57:48;22.90;;;3.63;;
41875;SDS011;27555;50.808;4.402;2022-10-28T06:00:15;23.20;;;3.55;;
41875;SDS011;27555;50.808;4.402;2022-10-28T06:02:43;15.15;;;3.97;;
41875;SDS011;27555;50.808;4.402;2022-10-28T06:05:08;18.30;;;4.00;;
41875;SDS011;27555;50.808;4.402;2022-10-28T06:07:35;16.42;;;3.45;;
41875;SDS011;27555;50.808;4.402;2022-10-28T06:10:02;16.15;;;3.13;;
41875;SDS011;27555;50.808;4.402;2022-10-28T06:12:29;15.20;;;2.80;;
41875;SDS011;27555;50.808;4.402;2022-10-28T06:14:54;13.88;;;3.22;;
41875;SDS011;27555;50.808;4.402;2022-10-28T06:17:20;19.17;;;3.70;;
41875;SDS011;27555;50.808;4.402;2022-10-28T06:19:45;17.38;;;3.58;;
41875;SDS011;27555;50.808;4.402;2022-10-28T06:22:11;21.83;;;4.40;;
41875;SDS011;27555;50.808;4.402;2022-10-28T06:24:37;11.32;;;3.40;;
41875;SDS011;27555;50.808;4.402;2022-10-28T06:27:02;15.82;;;3.95;;
41875;SDS011;27555;50.808;4.402;2022-10-28T06:29:28;15.60;;;3.58;;
41875;SDS011;27555;50.808;4.402;2022-10-28T06:31:53;15.13;;;3.95;;
41875;SDS011;27555;50.808;4.402;2022-10-28T06:34:19;13.45;;;3.72;;
41875;SDS011;27555;50.808;4.402;2022-10-28T06:36:45;13.43;;;3.58;;
41875;SDS011;27555;50.808;4.402;2022-10-28T06:39:10;18.55;;;4.22;;
41875;SDS011;27555;50.808;4.402;2022-10-28T06:41:36;18.50;;;4.50;;
41875;SDS011;27555;50.808;4.402;2022-10-28T06:44:01;12.10;;;4.55;;
41875;SDS011;27555;50.808;4.402;2022-10-28T06:46:27;16.85;;;3.60;;
41875;SDS011;27555;50.808;4.402;2022-10-28T06:48:53;20.58;;;5.25;;
41875;SDS011;27555;50.808;4.402;2022-10-28T06:51:19;20.55;;;4.30;;
41875;SDS011;27555;50.808;4.402;2022-10-28T06:53:49;21.35;;;3.85;;
41875;SDS011;27555;50.808;4.402;2022-10-28T06:56:15;14.63;;;4.97;;
41875;SDS011;27555;50.808;4.402;2022-10-28T06:58:41;25.13;;;8.43;;
41875;SDS011;27555;50.808;4.402;2022-10-28T07:01:06;14.55;;;4.22;;
41875;SDS011;27555;50.808;4.402;2022-10-28T07:03:33;20.52;;;4.88;;
41875;SDS011;27555;50.808;4.402;2022-10-28T07:05:58;14.70;;;5.15;;
41875;SDS011;27555;50.808;4.402;2022-10-28T07:08:28;22.83;;;5.75;;
41875;SDS011;27555;50.808;4.402;2022-10-28T07:10:54;14.67;;;4.47;;
41875;SDS011;27555;50.808;4.402;2022-10-28T07:13:21;18.55;;;4.32;;
41875;SDS011;27555;50.808;4.402;2022-10-28T07:15:51;12.27;;;4.70;;
41875;SDS011;27555;50.808;4.402;2022-10-28T07:18:18;23.60;;;4.85;;
41875;SDS011;27555;50.808;4.402;2022-10-28T07:20:44;17.33;;;4.53;;
41875;SDS011;27555;50.808;4.402;2022-10-28T07:23:09;19.90;;;5.50;;
41875;SDS011;27555;50.808;4.402;2022-10-28T07:25:35;20.00;;;4.55;;
41875;SDS011;27555;50.808;4.402;2022-10-28T07:28:01;18.58;;;5.13;;
41875;SDS011;27555;50.808;4.402;2022-10-28T07:30:27;19.05;;;4.38;;
41875;SDS011;27555;50.808;4.402;2022-10-28T07:32:53;48.20;;;5.28;;
41875;SDS011;27555;50.808;4.402;2022-10-28T07:35:19;20.80;;;5.65;;
41875;SDS011;27555;50.808;4.402;2022-10-28T07:37:45;21.27;;;5.05;;
41875;SDS011;27555;50.808;4.402;2022-10-28T07:40:11;21.60;;;4.90;;
41875;SDS011;27555;50.808;4.402;2022-10-28T07:42:37;17.90;;;4.47;;
41875;SDS011;27555;50.808;4.402;2022-10-28T07:45:05;18.63;;;4.45;;
41875;SDS011;27555;50.808;4.402;2022-10-28T07:47:32;22.17;;;5.57;;
41875;SDS011;27555;50.808;4.402;2022-10-28T07:49:57;14.65;;;3.80;;
41875;SDS011;27555;50.808;4.402;2022-10-28T07:52:23;15.35;;;3.70;;
41875;SDS011;27555;50.808;4.402;2022-10-28T07:54:50;11.73;;;4.78;;
41875;SDS011;27555;50.808;4.402;2022-10-28T07:57:16;19.23;;;4.22;;
41875;SDS011;27555;50.808;4.402;2022-10-28T07:59:42;19.60;;;4.07;;
41875;SDS011;27555;50.808;4.402;2022-10-28T08:02:09;17.15;;;4.10;;
41875;SDS011;27555;50.808;4.402;2022-10-28T08:04:40;17.80;;;4.28;;
41875;SDS011;27555;50.808;4.402;2022-10-28T08:07:05;14.88;;;3.38;;
41875;SDS011;27555;50.808;4.402;2022-10-28T08:09:31;15.60;;;4.00;;
41875;SDS011;27555;50.808;4.402;2022-10-28T08:11:56;15.35;;;4.25;;
41875;SDS011;27555;50.808;4.402;2022-10-28T08:14:22;19.92;;;4.57;;
41875;SDS011;27555;50.808;4.402;2022-10-28T08:16:47;11.20;;;4.43;;
41875;SDS011;27555;50.808;4.402;2022-10-28T08:19:13;18.77;;;4.15;;
41875;SDS011;27555;50.808;4.402;2022-10-28T08:21:39;18.13;;;4.00;;
41875;SDS011;27555;50.808;4.402;2022-10-28T08:24:04;14.10;;;3.65;;
41875;SDS011;27555;50.808;4.402;2022-10-28T08:26:30;15.52;;;3.83;;
41875;SDS011;27555;50.808;4.402;2022-10-28T08:28:56;14.95;;;4.03;;
41875;SDS011;27555;50.808;4.402;2022-10-28T08:31:22;14.48;;;4.35;;
41875;SDS011;27555;50.808;4.402;2022-10-28T08:33:48;22.38;;;4.50;;
41875;SDS011;27555;50.808;4.402;2022-10-28T08:36:14;15.90;;;4.30;;
41875;SDS011;27555;50.808;4.402;2022-10-28T08:38:44;31.92;;;5.63;;
41875;SDS011;27555;50.808;4.402;2022-10-28T08:41:15;19.77;;;4.40;;
41875;SDS011;27555;50.808;4.402;2022-10-28T08:49:37;16.42;;;4.07;;
41875;SDS011;27555;50.808;4.402;2022-10-28T08:52:10;13.60;;;3.80;;
41875;SDS011;27555;50.808;4.402;2022-10-28T08:55:20;17.70;;;3.85;;
41875;SDS011;27555;50.808;4.402;2022-10-28T08:57:54;17.38;;;3.75;;
41875;SDS011;27555;50.808;4.402;2022-10-28T09:00:26;17.45;;;5.03;;
41875;SDS011;27555;50.808;4.402;2022-10-28T09:02:56;19.27;;;3.55;;
41875;SDS011;27555;50.808;4.402;2022-10-28T09:05:24;18.30;;;3.60;;
41875;SDS011;27555;50.808;4.402;2022-10-28T09:07:51;17.98;;;3.95;;
41875;SDS011;27555;50.808;4.402;2022-10-28T09:10:22;18.02;;;4.00;;
41875;SDS011;27555;50.808;4.402;2022-10-28T09:13:32;21.58;;;4.25;;
41875;SDS011;27555;50.808;4.402;2022-10-28T09:18:52;16.63;;;4.18;;
41875;SDS011;27555;50.808;4.402;2022-10-28T09:23:58;13.10;;;3.38;;
41875;SDS011;27555;50.808;4.402;2022-10-28T09:26:32;14.52;;;3.50;;
41875;SDS011;27555;50.808;4.402;2022-10-28T09:31:47;20.25;;;3.03;;
41875;SDS011;27555;50.808;4.402;2022-10-28T09:39:47;21.65;;;3.85;;
41875;SDS011;27555;50.808;4.402;2022-10-28T09:42:43;32.95;;;3.50;;
41875;SDS011;27555;50.808;4.402;2022-10-28T09:45:15;19.27;;;3.83;;
41875;SDS011;27555;50.808;4.402;2022-10-28T09:47:52;9.82;;;3.33;;
41875;SDS011;27555;50.808;4.402;2022-10-28T09:50:22;19.77;;;3.58;;
41875;SDS011;27555;50.808;4.402;2022-10-28T09:52:55;20.75;;;3.17;;
41875;SDS011;27555;50.808;4.402;2022-10-28T09:55:42;30.23;;;4.15;;
41875;SDS011;27555;50.808;4.402;2022-10-28T09:58:08;19.92;;;3.95;;
41875;SDS011;27555;50.808;4.402;2022-10-28T10:00:37;12.43;;;4.07;;
41875;SDS011;27555;50.808;4.402;2022-10-28T10:03:04;16.83;;;3.40;;
41875;SDS011;27555;50.808;4.402;2022-10-28T10:05:30;12.52;;;3.40;;
41875;SDS011;27555;50.808;4.402;2022-10-28T10:08:04;23.42;;;3.65;;
41875;SDS011;27555;50.808;4.402;2022-10-28T10:10:35;15.07;;;3.67;;
41875;SDS011;27555;50.808;4.402;2022-10-28T10:13:22;13.32;;;3.40;;
41875;SDS011;27555;50.808;4.402;2022-10-28T10:19:01;11.98;;;3.78;;
41875;SDS011;27555;50.808;4.402;2022-10-28T10:21:43;20.73;;;3.67;;
41875;SDS011;27555;50.808;4.402;2022-10-28T10:27:01;15.75;;;3.00;;
41875;SDS011;27555;50.808;4.402;2022-10-28T10:29:42;20.17;;;4.15;;
41875;SDS011;27555;50.808;4.402;2022-10-28T10:32:16;19.38;;;2.80;;
41875;SDS011;27555;50.808;4.402;2022-10-28T10:34:48;18.42;;;2.90;;
41875;SDS011;27555;50.808;4.402;2022-10-28T10:37:21;20.08;;;3.38;;
41875;SDS011;27555;50.808;4.402;2022-10-28T10:40:49;27.60;;;3.75;;
41875;SDS011;27555;50.808;4.402;2022-10-28T10:42:45;18.23;;;4.25;;
41875;SDS011;27555;50.808;4.402;2022-10-28T10:45:19;20.65;;;3.85;;
41875;SDS011;27555;50.808;4.402;2022-10-28T10:48:05;11.27;;;3.53;;
41875;SDS011;27555;50.808;4.402;2022-10-28T10:50:36;17.10;;;3.95;;
41875;SDS011;27555;50.808;4.402;2022-10-28T10:53:02;26.73;;;4.07;;
41875;SDS011;27555;50.808;4.402;2022-10-28T10:58:01;17.13;;;3.28;;
41875;SDS011;27555;50.808;4.402;2022-10-28T11:00:31;22.15;;;3.00;;
41875;SDS011;27555;50.808;4.402;2022-10-28T11:03:02;16.60;;;3.42;;
41875;SDS011;27555;50.808;4.402;2022-10-28T11:05:29;19.80;;;3.17;;
41875;SDS011;27555;50.808;4.402;2022-10-28T11:07:55;20.10;;;2.88;;
41875;SDS011;27555;50.808;4.402;2022-10-28T11:10:28;17.52;;;3.85;;
41875;SDS011;27555;50.808;4.402;2022-10-28T11:13:01;13.45;;;3.53;;
41875;SDS011;27555;50.808;4.402;2022-10-28T11:15:57;14.13;;;3.33;;
41875;SDS011;27555;50.808;4.402;2022-10-28T11:18:24;22.52;;;3.75;;
41875;SDS011;27555;50.808;4.402;2022-10-28T11:26:14;17.50;;;3.95;;
41875;SDS011;27555;50.808;4.402;2022-10-28T11:28:45;14.52;;;3.60;;
41875;SDS011;27555;50.808;4.402;2022-10-28T11:34:36;18.35;;;3.30;;
41875;SDS011;27555;50.808;4.402;2022-10-28T11:37:10;13.23;;;3.08;;
41875;SDS011;27555;50.808;4.402;2022-10-28T11:47:38;15.60;;;3.30;;
41875;SDS011;27555;50.808;4.402;2022-10-28T11:56:17;10.73;;;2.80;;
41875;SDS011;27555;50.808;4.402;2022-10-28T12:15:39;17.40;;;3.38;;
41875;SDS011;27555;50.808;4.402;2022-10-28T12:18:28;24.30;;;3.50;;
41875;SDS011;27555;50.808;4.402;2022-10-28T12:21:32;18.30;;;3.38;;
41875;SDS011;27555;50.808;4.402;2022-10-28T12:24:09;16.55;;;2.75;;
41875;SDS011;27555;50.808;4.402;2022-10-28T12:26:42;11.77;;;2.65;;
41875;SDS011;27555;50.808;4.402;2022-10-28T12:29:23;13.77;;;2.85;;
41875;SDS011;27555;50.808;4.402;2022-10-28T12:32:05;21.20;;;3.72;;
41875;SDS011;27555;50.808;4.402;2022-10-28T12:34:45;14.68;;;2.70;;
41875;SDS011;27555;50.808;4.402;2022-10-28T12:37:18;13.65;;;2.80;;
41875;SDS011;27555;50.808;4.402;2022-10-28T12:40:05;14.73;;;2.97;;
41875;SDS011;27555;50.808;4.402;2022-10-28T12:42:38;20.08;;;3.08;;
41875;SDS011;27555;50.808;4.402;2022-10-28T12:45:11;12.43;;;3.58;;
41875;SDS011;27555;50.808;4.402;2022-10-28T12:47:41;16.50;;;2.88;;
41875;SDS011;27555;50.808;4.402;2022-10-28T12:55:58;18.75;;;3.88;;
41875;SDS011;27555;50.808;4.402;2022-10-28T13:00:54;17.98;;;3.42;;
41875;SDS011;27555;50.808;4.402;2022-10-28T13:03:24;14.35;;;2.60;;
41875;SDS011;27555;50.808;4.402;2022-10-28T13:24:03;23.65;;;3.95;;
41875;SDS011;27555;50.808;4.402;2022-10-28T13:26:49;11.10;;;2.65;;
41875;SDS011;27555;50.808;4.402;2022-10-28T13:29:18;18.33;;;2.85;;
41875;SDS011;27555;50.808;4.402;2022-10-28T13:31:44;12.10;;;3.30;;
41875;SDS011;27555;50.808;4.402;2022-10-28T13:34:12;9.68;;;2.60;;
41875;SDS011;27555;50.808;4.402;2022-10-28T13:36:41;24.02;;;2.90;;
41875;SDS011;27555;50.808;4.402;2022-10-28T13:52:38;14.13;;;2.80;;
41875;SDS011;27555;50.808;4.402;2022-10-28T13:58:18;18.77;;;3.63;;
41875;SDS011;27555;50.808;4.402;2022-10-28T14:00:46;8.50;;;2.58;;
41875;SDS011;27555;50.808;4.402;2022-10-28T14:03:23;21.38;;;2.88;;
41875;SDS011;27555;50.808;4.402;2022-10-28T14:05:51;17.00;;;3.65;;
41875;SDS011;27555;50.808;4.402;2022-10-28T14:08:36;21.23;;;3.50;;
41875;SDS011;27555;50.808;4.402;2022-10-28T14:11:08;23.20;;;3.45;;
41875;SDS011;27555;50.808;4.402;2022-10-28T14:19:03;14.00;;;2.70;;
41875;SDS011;27555;50.808;4.402;2022-10-28T14:21:43;17.17;;;3.80;;
41875;SDS011;27555;50.808;4.402;2022-10-28T14:24:29;15.52;;;2.72;;
41875;SDS011;27555;50.808;4.402;2022-10-28T14:29:29;18.38;;;3.03;;
41875;SDS011;27555;50.808;4.402;2022-10-28T14:40:50;12.68;;;2.78;;
41875;SDS011;27555;50.808;4.402;2022-10-28T14:49:25;15.55;;;3.38;;
41875;SDS011;27555;50.808;4.402;2022-10-28T14:51:54;19.63;;;3.70;;
41875;SDS011;27555;50.808;4.402;2022-10-28T14:54:27;17.98;;;3.47;;
41875;SDS011;27555;50.808;4.402;2022-10-28T14:57:01;18.42;;;2.80;;
41875;SDS011;27555;50.808;4.402;2022-10-28T14:59:32;17.77;;;3.80;;
41875;SDS011;27555;50.808;4.402;2022-10-28T15:04:39;14.27;;;3.20;;
41875;SDS011;27555;50.808;4.402;2022-10-28T15:07:13;23.17;;;4.03;;
41875;SDS011;27555;50.808;4.402;2022-10-28T15:09:41;12.80;;;3.45;;
41875;SDS011;27555;50.808;4.402;2022-10-28T15:12:12;13.00;;;2.72;;
41875;SDS011;27555;50.808;4.402;2022-10-28T15:14:43;21.73;;;3.88;;
41875;SDS011;27555;50.808;4.402;2022-10-28T15:17:18;17.65;;;3.30;;
41875;SDS011;27555;50.808;4.402;2022-10-28T15:19:47;16.77;;;4.05;;
41875;SDS011;27555;50.808;4.402;2022-10-28T15:22:18;13.95;;;3.28;;
41875;SDS011;27555;50.808;4.402;2022-10-28T15:24:58;15.18;;;3.05;;
41875;SDS011;27555;50.808;4.402;2022-10-28T15:27:29;12.88;;;3.85;;
41875;SDS011;27555;50.808;4.402;2022-10-28T15:29:56;16.77;;;3.20;;
41875;SDS011;27555;50.808;4.402;2022-10-28T15:34:52;20.85;;;3.40;;
41875;SDS011;27555;50.808;4.402;2022-10-28T15:37:19;17.25;;;2.75;;
41875;SDS011;27555;50.808;4.402;2022-10-28T15:39:49;21.48;;;3.67;;
41875;SDS011;27555;50.808;4.402;2022-10-28T15:45:15;20.50;;;3.13;;
41875;SDS011;27555;50.808;4.402;2022-10-28T15:47:43;8.98;;;2.85;;
41875;SDS011;27555;50.808;4.402;2022-10-28T15:50:31;16.27;;;3.38;;
41875;SDS011;27555;50.808;4.402;2022-10-28T15:55:35;13.15;;;4.95;;
41875;SDS011;27555;50.808;4.402;2022-10-28T16:00:55;23.33;;;3.47;;
41875;SDS011;27555;50.808;4.402;2022-10-28T16:06:24;15.85;;;5.00;;
41875;SDS011;27555;50.808;4.402;2022-10-28T16:09:53;17.10;;;3.70;;
41875;SDS011;27555;50.808;4.402;2022-10-28T16:11:54;18.48;;;4.32;;
41875;SDS011;27555;50.808;4.402;2022-10-28T16:16:54;20.48;;;4.50;;
41875;SDS011;27555;50.808;4.402;2022-10-28T16:19:27;25.13;;;4.38;;
41875;SDS011;27555;50.808;4.402;2022-10-28T16:22:00;16.17;;;3.28;;
41875;SDS011;27555;50.808;4.402;2022-10-28T16:24:26;27.38;;;3.85;;
41875;SDS011;27555;50.808;4.402;2022-10-28T16:26:51;14.07;;;3.58;;
41875;SDS011;27555;50.808;4.402;2022-10-28T16:29:17;11.82;;;4.03;;
41875;SDS011;27555;50.808;4.402;2022-10-28T16:31:42;24.15;;;4.47;;
41875;SDS011;27555;50.808;4.402;2022-10-28T16:34:14;24.85;;;4.50;;
41875;SDS011;27555;50.808;4.402;2022-10-28T16:36:41;15.68;;;4.18;;
41875;SDS011;27555;50.808;4.402;2022-10-28T16:39:11;25.17;;;8.75;;
41875;SDS011;27555;50.808;4.402;2022-10-28T16:41:37;17.08;;;4.88;;
41875;SDS011;27555;50.808;4.402;2022-10-28T16:44:04;16.05;;;4.43;;
41875;SDS011;27555;50.808;4.402;2022-10-28T16:46:39;23.05;;;4.40;;
41875;SDS011;27555;50.808;4.402;2022-10-28T16:49:04;19.45;;;4.45;;
41875;SDS011;27555;50.808;4.402;2022-10-28T16:51:30;24.63;;;5.78;;
41875;SDS011;27555;50.808;4.402;2022-10-28T16:53:57;21.63;;;4.82;;
41875;SDS011;27555;50.808;4.402;2022-10-28T16:56:23;23.67;;;4.47;;
41875;SDS011;27555;50.808;4.402;2022-10-28T16:58:49;24.65;;;4.82;;
41875;SDS011;27555;50.808;4.402;2022-10-28T17:01:16;18.55;;;4.47;;
41875;SDS011;27555;50.808;4.402;2022-10-28T17:03:45;21.35;;;4.65;;
41875;SDS011;27555;50.808;4.402;2022-10-28T17:06:11;17.48;;;4.95;;
41875;SDS011;27555;50.808;4.402;2022-10-28T17:08:36;25.42;;;5.30;;
41875;SDS011;27555;50.808;4.402;2022-10-28T17:11:02;23.23;;;5.07;;
41875;SDS011;27555;50.808;4.402;2022-10-28T17:13:28;29.55;;;7.00;;
41875;SDS011;27555;50.808;4.402;2022-10-28T17:15:54;20.38;;;4.63;;
41875;SDS011;27555;50.808;4.402;2022-10-28T17:18:20;27.08;;;4.18;;
41875;SDS011;27555;50.808;4.402;2022-10-28T17:20:56;28.63;;;5.10;;
41875;SDS011;27555;50.808;4.402;2022-10-28T17:23:23;19.52;;;4.88;;
41875;SDS011;27555;50.808;4.402;2022-10-28T17:25:56;25.55;;;5.97;;
41875;SDS011;27555;50.808;4.402;2022-10-28T17:28:22;19.83;;;5.20;;
41875;SDS011;27555;50.808;4.402;2022-10-28T17:30:48;24.48;;;5.20;;
41875;SDS011;27555;50.808;4.402;2022-10-28T17:33:13;15.55;;;4.45;;
41875;SDS011;27555;50.808;4.402;2022-10-28T17:35:39;20.60;;;5.30;;
41875;SDS011;27555;50.808;4.402;2022-10-28T17:38:07;22.15;;;5.57;;
41875;SDS011;27555;50.808;4.402;2022-10-28T17:40:33;22.38;;;5.88;;
41875;SDS011;27555;50.808;4.402;2022-10-28T17:42:59;22.15;;;5.43;;
41875;SDS011;27555;50.808;4.402;2022-10-28T17:45:25;23.38;;;5.82;;
41875;SDS011;27555;50.808;4.402;2022-10-28T17:47:52;22.85;;;7.38;;
41875;SDS011;27555;50.808;4.402;2022-10-28T17:50:17;14.38;;;5.97;;
41875;SDS011;27555;50.808;4.402;2022-10-28T17:52:45;25.40;;;7.15;;
41875;SDS011;27555;50.808;4.402;2022-10-28T17:55:11;19.42;;;6.72;;
41875;SDS011;27555;50.808;4.402;2022-10-28T17:57:37;23.23;;;6.55;;
41875;SDS011;27555;50.808;4.402;2022-10-28T18:00:03;16.30;;;6.22;;
41875;SDS011;27555;50.808;4.402;2022-10-28T18:02:29;22.45;;;6.28;;
41875;SDS011;27555;50.808;4.402;2022-10-28T18:04:54;32.67;;;6.95;;
41875;SDS011;27555;50.808;4.402;2022-10-28T18:07:20;20.98;;;6.88;;